Time;durP1;ratioP1;P1;durP2;ratioP2;P2;SDS_P1;SDS_P2;PMS_P1;PMS_P2;Temp;Humidity;BMP_temperature;BMP_pressure;BME280_temperature;BME280_humidity;BME280_pressure;Samples;Min_cycle;Max_cycle;Signal;HPM_P1;HPM_P2
2022/06/16 00:00:24;;;;;;;2.00;1.90;;;19.50;53.30;;;;;;5008047;28;20048;-72
2022/06/16 00:02:50;;;;;;;3.92;2.35;;;19.40;53.20;;;;;;4999972;28;20113;-72
2022/06/16 00:05:18;;;;;;;5.07;2.40;;;19.40;53.40;;;;;;5017069;28;20029;-72
2022/06/16 00:07:44;;;;;;;3.88;2.40;;;19.40;53.60;;;;;;5021576;28;20068;-72
2022/06/16 00:10:10;;;;;;;2.30;2.10;;;19.40;53.80;;;;;;5014674;28;20104;-73
2022/06/16 00:12:36;;;;;;;4.00;2.38;;;19.30;53.70;;;;;;5019460;28;20043;-74
2022/06/16 00:15:01;;;;;;;4.72;2.20;;;19.30;53.90;;;;;;5004212;28;20117;-73
2022/06/16 00:17:27;;;;;;;3.20;2.13;;;19.30;54.00;;;;;;5034314;28;20120;-73
2022/06/16 00:19:52;;;;;;;2.15;2.03;;;19.20;54.10;;;;;;5017349;28;20542;-72
2022/06/16 00:22:18;;;;;;;2.95;2.03;;;19.20;54.20;;;;;;4991797;28;20039;-72
2022/06/16 00:24:44;;;;;;;2.75;2.20;;;19.20;54.30;;;;;;5010237;28;20049;-72
2022/06/16 00:27:09;;;;;;;2.50;1.83;;;19.20;54.50;;;;;;5016434;28;20052;-73
2022/06/16 00:29:35;;;;;;;2.72;2.40;;;19.10;54.50;;;;;;5003992;28;20044;-72
2022/06/16 00:32:01;;;;;;;5.00;2.20;;;19.10;54.60;;;;;;5007853;28;20084;-73
2022/06/16 00:34:26;;;;;;;3.90;2.63;;;19.10;54.70;;;;;;5003169;28;20116;-73
2022/06/16 00:36:52;;;;;;;2.33;2.13;;;19.00;54.80;;;;;;5011324;28;20041;-72
2022/06/16 00:39:18;;;;;;;3.45;2.63;;;18.90;54.90;;;;;;5003448;28;20037;-73
2022/06/16 00:41:43;;;;;;;2.75;2.17;;;18.90;55.10;;;;;;5021787;28;20049;-74
2022/06/16 00:44:23;;;;;;;3.55;2.30;;;18.90;55.20;;;;;;5018184;28;20057;-73
2022/06/16 00:46:49;;;;;;;3.30;2.20;;;18.80;55.70;;;;;;5016338;28;20534;-73
2022/06/16 00:49:14;;;;;;;3.17;2.53;;;18.80;55.40;;;;;;5005656;28;20051;-72
2022/06/16 00:51:49;;;;;;;2.85;2.38;;;18.70;55.50;;;;;;5003649;28;20060;-72
2022/06/16 00:54:31;;;;;;;10.82;2.83;;;18.70;55.80;;;;;;5001929;28;20041;-73
2022/06/16 00:56:58;;;;;;;;;;;18.70;56.00;;;;;;5005375;28;20056;-72
2022/06/16 00:59:23;;;;;;;8.45;2.70;;;18.60;55.40;;;;;;4983672;28;19926;-72
2022/06/16 01:01:49;;;;;;;6.03;2.40;;;18.50;55.60;;;;;;4993012;28;20120;-73
2022/06/16 01:07:00;;;;;;;2.63;2.42;;;18.40;55.90;;;;;;5017523;28;20040;-73
2022/06/16 01:09:28;;;;;;;3.25;2.20;;;18.40;56.00;;;;;;4992639;28;20048;-73
2022/06/16 01:15:39;;;;;;;3.72;2.97;;;18.40;56.70;;;;;;5025371;28;20154;-73
2022/06/16 01:18:28;;;;;;;3.15;2.85;;;18.30;56.70;;;;;;5018963;28;20068;-73
2022/06/16 01:21:22;;;;;;;4.70;2.40;;;18.30;56.80;;;;;;5033929;28;20045;-73
2022/06/16 01:24:02;;;;;;;3.45;2.47;;;18.30;56.90;;;;;;5016570;28;20571;-73
2022/06/16 01:27:01;;;;;;;3.03;2.72;;;18.20;56.70;;;;;;5003556;28;20049;-73
2022/06/16 01:29:49;;;;;;;3.58;2.75;;;18.20;57.20;;;;;;5018598;28;20078;-73
2022/06/16 01:32:19;;;;;;;8.50;2.75;;;18.10;57.20;;;;;;5005642;28;20040;-73
2022/06/16 01:35:08;;;;;;;4.32;2.80;;;18.10;57.00;;;;;;4998707;28;20033;-74
2022/06/16 01:38:02;;;;;;;2.60;2.20;;;18.00;57.40;;;;;;5028015;28;20158;-73
2022/06/16 01:40:42;;;;;;;3.13;2.30;;;18.00;57.50;;;;;;5003287;28;20037;-72
2022/06/16 01:43:20;;;;;;;4.43;2.65;;;18.00;57.50;;;;;;5032593;28;20038;-73
2022/06/16 01:46:01;;;;;;;2.85;2.22;;;17.90;57.70;;;;;;5021155;28;20040;-73
2022/06/16 01:48:27;;;;;;;3.00;2.17;;;17.90;57.50;;;;;;5005786;28;20120;-74
2022/06/16 01:51:02;;;;;;;3.45;2.58;;;17.90;57.50;;;;;;5006836;28;20503;-73
2022/06/16 01:53:40;;;;;;;2.83;2.40;;;17.80;57.90;;;;;;4987786;28;20104;-73
2022/06/16 01:56:24;;;;;;;3.33;2.20;;;17.70;58.10;;;;;;5018085;28;20034;-73
2022/06/16 01:58:53;;;;;;;2.97;2.55;;;17.60;58.10;;;;;;4988730;28;20112;-73
2022/06/16 02:01:19;;;;;;;4.22;2.50;;;17.60;58.30;;;;;;4994205;28;20038;-73
2022/06/16 02:03:55;;;;;;;4.38;2.30;;;17.60;58.30;;;;;;5003203;28;20045;-73
2022/06/16 02:06:26;;;;;;;3.78;2.55;;;17.50;58.60;;;;;;5014209;28;20052;-73
2022/06/16 02:09:00;;;;;;;4.07;2.63;;;17.50;58.80;;;;;;5001174;28;20038;-73
2022/06/16 02:11:28;;;;;;;2.92;2.67;;;17.50;58.70;;;;;;5023302;28;20052;-73
2022/06/16 02:14:24;;;;;;;2.53;2.08;;;17.40;58.70;;;;;;5010557;28;20584;-73
2022/06/16 02:16:49;;;;;;;2.83;2.33;;;17.40;59.20;;;;;;5017695;28;20037;-73
2022/06/16 02:19:16;;;;;;;4.75;2.88;;;17.30;58.80;;;;;;5019830;28;20670;-73
2022/06/16 02:21:45;;;;;;;5.05;2.53;;;17.30;58.90;;;;;;5006023;28;20034;-73
2022/06/16 02:24:15;;;;;;;5.60;3.08;;;17.20;59.20;;;;;;5021738;28;20046;-73
2022/06/16 02:26:40;;;;;;;4.43;2.78;;;17.20;59.40;;;;;;5009779;28;20052;-73
2022/06/16 02:29:22;;;;;;;4.10;2.60;;;17.10;59.50;;;;;;5010175;28;20029;-73
2022/06/16 02:32:11;;;;;;;2.85;2.55;;;17.10;60.20;;;;;;5005223;28;20048;-73
2022/06/16 02:34:55;;;;;;;3.17;2.60;;;17.00;60.20;;;;;;4991143;28;20033;-73
2022/06/16 02:37:43;;;;;;;3.67;2.60;;;17.00;60.30;;;;;;5041104;28;20064;-73
2022/06/16 02:40:39;;;;;;;3.78;2.70;;;17.00;60.40;;;;;;5006514;28;20037;-73
2022/06/16 02:43:13;;;;;;;3.03;2.67;;;17.00;60.30;;;;;;5007369;28;20038;-73
2022/06/16 02:45:50;;;;;;;3.13;2.17;;;16.90;59.70;;;;;;5022442;28;20089;-73
2022/06/16 02:48:28;;;;;;;3.88;2.97;;;16.90;60.10;;;;;;5039365;28;20033;-73
2022/06/16 02:51:17;;;;;;;3.10;2.90;;;16.90;60.50;;;;;;5024390;28;20053;-73
2022/06/16 02:54:07;;;;;;;3.72;2.70;;;16.90;60.60;;;;;;5006494;28;20014;-73
2022/06/16 02:56:56;;;;;;;2.97;2.60;;;16.90;60.50;;;;;;5033985;28;20032;-73
2022/06/16 02:59:27;;;;;;;3.28;2.53;;;16.80;60.70;;;;;;5019595;28;20803;-73
2022/06/16 03:01:53;;;;;;;2.72;2.53;;;16.80;60.50;;;;;;4982342;28;20093;-73
2022/06/16 03:04:19;;;;;;;5.15;3.10;;;16.80;60.40;;;;;;5006112;28;20113;-73
2022/06/16 03:06:44;;;;;;;2.40;2.22;;;16.80;60.60;;;;;;5023568;28;20539;-72
2022/06/16 03:09:10;;;;;;;3.42;2.42;;;16.80;60.60;;;;;;5024019;28;20033;-73
2022/06/16 03:11:36;;;;;;;3.30;2.50;;;16.70;60.70;;;;;;5010792;28;20036;-73
2022/06/16 03:14:02;;;;;;;3.40;2.65;;;16.70;60.80;;;;;;5039173;28;20038;-72
2022/06/16 03:16:27;;;;;;;3.75;2.40;;;16.70;60.90;;;;;;5022391;28;20120;-73
2022/06/16 03:18:53;;;;;;;2.80;2.50;;;16.60;60.80;;;;;;5029638;28;20529;-73
2022/06/16 03:21:18;;;;;;;4.10;2.53;;;16.60;61.20;;;;;;5024012;28;20042;-73
2022/06/16 03:23:44;;;;;;;2.60;2.40;;;16.60;61.00;;;;;;5024504;28;20058;-73
2022/06/16 03:26:09;;;;;;;5.38;2.88;;;16.60;61.10;;;;;;5022500;28;20091;-73
2022/06/16 03:28:35;;;;;;;3.95;2.90;;;16.60;61.20;;;;;;4996119;28;20115;-73
2022/06/16 03:31:01;;;;;;;4.38;2.67;;;16.50;61.30;;;;;;5020651;28;20637;-73
2022/06/16 03:33:26;;;;;;;3.08;2.45;;;16.50;61.50;;;;;;5039396;28;20508;-73
2022/06/16 03:35:52;;;;;;;3.10;2.55;;;16.50;61.50;;;;;;5023835;28;20087;-73
2022/06/16 03:38:28;;;;;;;2.70;2.50;;;16.50;61.60;;;;;;5008250;28;20025;-73
2022/06/16 03:40:53;;;;;;;3.75;2.90;;;16.50;61.60;;;;;;5019846;28;20025;-73
2022/06/16 03:43:19;;;;;;;3.33;3.00;;;16.50;61.70;;;;;;5015244;28;20044;-73
2022/06/16 03:45:44;;;;;;;3.17;2.60;;;16.50;61.90;;;;;;4988818;28;20048;-72
2022/06/16 03:48:10;;;;;;;3.38;3.05;;;16.40;62.00;;;;;;5020064;28;20049;-73
2022/06/16 03:50:35;;;;;;;4.50;3.13;;;16.40;62.20;;;;;;5039759;28;20071;-73
2022/06/16 03:53:01;;;;;;;7.15;2.90;;;16.40;62.20;;;;;;5025300;28;20077;-73
2022/06/16 03:55:27;;;;;;;3.55;3.25;;;16.40;62.30;;;;;;4990921;28;20072;-73
2022/06/16 03:57:52;;;;;;;3.95;3.00;;;16.40;62.40;;;;;;5005872;28;20071;-73
2022/06/16 04:00:19;;;;;;;3.50;3.20;;;16.30;62.30;;;;;;4994315;28;20060;-72
2022/06/16 04:02:45;;;;;;;3.70;2.70;;;16.30;62.60;;;;;;5005780;28;20105;-72
2022/06/16 04:05:11;;;;;;;3.88;2.72;;;16.30;62.60;;;;;;5009041;28;20041;-73
2022/06/16 04:07:36;;;;;;;3.40;2.72;;;16.30;62.60;;;;;;5019308;28;20039;-72
2022/06/16 04:10:03;;;;;;;3.58;2.70;;;16.30;62.60;;;;;;5020591;28;20030;-73
2022/06/16 04:12:29;;;;;;;5.00;3.22;;;16.30;62.70;;;;;;5036322;28;20037;-72
2022/06/16 04:14:54;;;;;;;3.25;2.95;;;16.30;62.90;;;;;;5010437;28;20064;-73
2022/06/16 04:17:20;;;;;;;4.05;3.22;;;16.30;62.90;;;;;;4988106;28;20041;-73
2022/06/16 04:22:30;;;;;;;2.55;2.35;;;16.30;63.10;;;;;;5001120;28;20052;-73
2022/06/16 04:24:55;;;;;;;3.67;2.78;;;16.30;63.10;;;;;;5021561;28;20398;-72
2022/06/16 04:27:21;;;;;;;3.60;2.80;;;16.30;63.10;;;;;;5004072;28;20033;-73
2022/06/16 04:29:46;;;;;;;3.15;2.85;;;16.30;63.30;;;;;;4991121;28;20053;-73
2022/06/16 04:32:12;;;;;;;3.22;2.92;;;16.40;63.40;;;;;;5027155;28;20448;-72
2022/06/16 04:34:38;;;;;;;4.90;3.42;;;16.40;63.50;;;;;;5018800;28;20033;-73
2022/06/16 04:37:04;;;;;;;3.47;2.80;;;16.40;63.50;;;;;;5022071;28;20037;-72
2022/06/16 04:39:29;;;;;;;2.88;2.60;;;16.40;63.50;;;;;;5005324;28;20091;-73
2022/06/16 04:41:55;;;;;;;3.92;3.05;;;16.40;63.30;;;;;;5002939;28;20034;-72
2022/06/16 04:44:21;;;;;;;5.57;3.15;;;16.40;63.50;;;;;;4992943;28;21101;-72
2022/06/16 04:46:46;;;;;;;2.97;2.67;;;16.40;63.60;;;;;;5009892;28;20033;-73
2022/06/16 04:49:12;;;;;;;3.45;2.83;;;16.40;63.50;;;;;;5021274;28;20520;-73
2022/06/16 04:51:37;;;;;;;3.75;2.92;;;16.50;63.80;;;;;;4982724;28;20072;-73
2022/06/16 04:54:03;;;;;;;4.75;3.95;;;16.50;63.90;;;;;;4990255;28;20525;-72
2022/06/16 04:56:29;;;;;;;4.32;2.83;;;16.50;63.60;;;;;;5022780;28;20140;-73
2022/06/16 04:58:54;;;;;;;4.43;3.30;;;16.60;63.70;;;;;;5006802;28;20104;-72
2022/06/16 05:01:20;;;;;;;3.35;3.05;;;16.60;63.60;;;;;;4987824;28;20131;-74
2022/06/16 05:03:45;;;;;;;4.60;3.83;;;16.60;63.50;;;;;;5034010;28;20082;-72
2022/06/16 05:06:11;;;;;;;7.30;4.18;;;16.60;63.80;;;;;;5011521;28;20045;-73
2022/06/16 05:08:37;;;;;;;6.63;4.65;;;16.70;64.00;;;;;;5028926;28;20038;-73
2022/06/16 05:11:02;;;;;;;3.40;3.10;;;16.70;64.30;;;;;;5018139;28;20038;-73
2022/06/16 05:13:28;;;;;;;3.30;3.00;;;16.70;64.20;;;;;;5016742;28;20117;-72
2022/06/16 05:15:54;;;;;;;6.43;3.63;;;16.80;64.30;;;;;;5000621;28;20025;-73
2022/06/16 05:18:19;;;;;;;6.88;3.70;;;16.80;64.40;;;;;;5012317;28;20037;-73
2022/06/16 05:20:45;;;;;;;4.05;2.75;;;16.90;64.50;;;;;;5006164;28;20041;-73
2022/06/16 05:23:10;;;;;;;4.93;4.20;;;16.90;64.20;;;;;;5024140;28;20037;-73
2022/06/16 05:25:36;;;;;;;7.40;3.70;;;17.00;64.50;;;;;;5020875;28;20042;-72
2022/06/16 05:28:02;;;;;;;4.82;4.22;;;17.10;64.50;;;;;;5003753;28;20033;-73
2022/06/16 05:30:28;;;;;;;5.00;3.92;;;17.10;64.30;;;;;;5021363;28;20042;-72
2022/06/16 05:32:53;;;;;;;4.30;3.35;;;17.20;64.40;;;;;;5013195;28;20025;-73
2022/06/16 05:35:19;;;;;;;3.70;3.08;;;17.20;64.40;;;;;;5032947;28;20033;-73
2022/06/16 05:37:44;;;;;;;4.40;3.90;;;17.30;64.30;;;;;;4992321;28;20037;-72
2022/06/16 05:40:10;;;;;;;3.88;3.58;;;17.40;64.20;;;;;;5004036;28;20041;-72
2022/06/16 05:42:35;;;;;;;5.95;3.90;;;17.50;64.20;;;;;;5016988;28;20030;-72
2022/06/16 05:45:01;;;;;;;3.83;3.47;;;17.50;64.00;;;;;;5005836;28;20085;-72
2022/06/16 05:47:26;;;;;;;7.28;4.00;;;17.60;63.90;;;;;;5018714;28;20041;-72
2022/06/16 05:49:52;;;;;;;5.03;3.78;;;17.70;64.00;;;;;;5015214;28;20113;-72
2022/06/16 05:52:19;;;;;;;7.40;4.40;;;17.80;64.00;;;;;;5004428;28;20094;-73
2022/06/16 05:54:45;;;;;;;4.25;3.85;;;17.90;64.00;;;;;;4991159;28;20026;-73
2022/06/16 05:57:11;;;;;;;4.32;3.60;;;18.00;63.80;;;;;;5005286;28;20030;-72
2022/06/16 05:59:37;;;;;;;6.13;3.53;;;18.10;63.60;;;;;;5010848;28;20029;-72
2022/06/16 06:02:04;;;;;;;7.57;3.97;;;18.20;63.30;;;;;;5017548;28;20510;-73
2022/06/16 06:04:31;;;;;;;5.35;3.78;;;18.30;63.20;;;;;;5032051;28;20057;-72
2022/06/16 06:06:56;;;;;;;4.03;3.63;;;18.40;63.10;;;;;;5018043;28;20068;-72
2022/06/16 06:18:06;;;;;;;7.80;3.85;;;18.70;62.50;;;;;;4910214;29;20126;-72
2022/06/16 06:20:32;;;;;;;6.38;3.63;;;18.70;62.20;;;;;;4990337;28;20076;-73
2022/06/16 06:22:57;;;;;;;3.95;3.40;;;18.80;62.30;;;;;;5024449;28;20045;-73
2022/06/16 06:25:23;;;;;;;6.97;3.35;;;18.90;62.00;;;;;;5019636;28;20176;-73
2022/06/16 06:27:49;;;;;;;4.22;3.80;;;19.10;61.90;;;;;;5037453;28;20118;-72
2022/06/16 06:30:19;;;;;;;4.35;3.78;;;19.20;61.60;;;;;;5012310;28;20045;-73
2022/06/16 06:32:45;;;;;;;4.38;3.38;;;19.40;61.60;;;;;;5009264;28;20028;-72
2022/06/16 06:35:11;;;;;;;3.47;3.08;;;19.50;61.20;;;;;;5022808;28;20391;-73
2022/06/16 06:37:37;;;;;;;3.25;2.95;;;19.60;61.00;;;;;;5041143;28;20059;-73
2022/06/16 06:40:03;;;;;;;4.00;3.63;;;19.70;60.80;;;;;;5020547;28;20157;-73
2022/06/16 06:42:28;;;;;;;4.93;3.42;;;19.80;60.70;;;;;;5035393;28;20037;-73
2022/06/16 06:44:54;;;;;;;3.10;2.80;;;19.90;60.70;;;;;;5000894;28;20052;-73
2022/06/16 06:47:27;;;;;;;4.80;3.45;;;20.10;60.90;;;;;;5015108;28;20056;-73
2022/06/16 06:49:52;;;;;;;4.80;3.22;;;20.20;60.10;;;;;;4990058;28;20709;-73
2022/06/16 06:52:18;;;;;;;3.47;3.10;;;20.40;59.90;;;;;;5029876;28;20116;-73
2022/06/16 06:54:45;;;;;;;6.47;3.17;;;20.40;59.70;;;;;;5001197;28;20611;-73
2022/06/16 06:57:17;;;;;;;6.63;3.53;;;20.60;59.50;;;;;;5019114;28;20033;-74
2022/06/16 06:59:43;;;;;;;5.25;3.35;;;20.70;59.50;;;;;;5002913;28;20104;-73
2022/06/16 07:02:11;;;;;;;6.10;3.33;;;20.80;59.20;;;;;;5028560;28;20041;-73
2022/06/16 07:04:38;;;;;;;3.78;2.58;;;20.90;59.00;;;;;;5008719;28;20041;-74
2022/06/16 07:07:03;;;;;;;4.13;2.90;;;20.90;58.80;;;;;;5010865;28;20050;-73
2022/06/16 07:09:29;;;;;;;5.93;3.42;;;21.00;58.70;;;;;;5022388;28;20038;-74
2022/06/16 07:11:54;;;;;;;3.60;2.55;;;21.00;58.40;;;;;;5023501;28;20030;-73
2022/06/16 07:14:20;;;;;;;3.85;2.97;;;21.10;58.40;;;;;;5027031;28;20038;-74
2022/06/16 07:16:45;;;;;;;3.92;2.80;;;21.30;58.30;;;;;;5026369;28;20430;-73
2022/06/16 07:19:11;;;;;;;4.13;2.90;;;21.50;58.00;;;;;;5008625;28;20037;-73
2022/06/16 07:21:36;;;;;;;7.97;3.00;;;21.60;57.80;;;;;;5004263;28;20048;-73
2022/06/16 07:24:02;;;;;;;4.13;2.80;;;21.90;57.60;;;;;;5011169;28;20034;-73
2022/06/16 07:26:28;;;;;;;5.15;3.28;;;22.10;57.20;;;;;;5039845;28;20048;-73
2022/06/16 07:28:55;;;;;;;3.20;2.90;;;22.30;56.90;;;;;;5020102;28;20034;-73
2022/06/16 07:31:21;;;;;;;3.58;2.60;;;22.50;56.30;;;;;;5006480;28;20048;-73
2022/06/16 07:33:46;;;;;;;4.85;2.63;;;22.70;55.80;;;;;;5001040;28;20121;-73
2022/06/16 07:36:12;;;;;;;4.80;2.60;;;22.80;55.50;;;;;;4989545;28;20037;-73
2022/06/16 07:38:38;;;;;;;2.97;2.47;;;23.00;55.30;;;;;;5027638;28;20068;-73
2022/06/16 07:43:48;;;;;;;5.65;3.55;;;23.40;54.90;;;;;;5007225;28;20041;-73
2022/06/16 07:46:13;;;;;;;3.60;2.70;;;23.70;54.50;;;;;;5013135;28;20033;-73
2022/06/16 07:48:39;;;;;;;3.55;2.60;;;23.90;54.40;;;;;;5039819;28;20047;-74
2022/06/16 07:51:05;;;;;;;4.13;2.50;;;24.20;54.00;;;;;;5036113;28;20105;-73
2022/06/16 07:53:30;;;;;;;6.30;2.38;;;24.40;53.70;;;;;;5024650;28;20052;-73
2022/06/16 07:55:56;;;;;;;2.88;2.38;;;24.50;53.30;;;;;;5020635;28;20033;-73
2022/06/16 07:58:23;;;;;;;3.85;2.47;;;24.80;52.80;;;;;;4980554;28;20038;-74
2022/06/16 08:00:49;;;;;;;3.58;2.67;;;25.00;53.10;;;;;;5008481;28;20048;-74
2022/06/16 08:03:14;;;;;;;4.32;2.28;;;25.20;52.00;;;;;;5034700;28;20039;-73
2022/06/16 08:05:40;;;;;;;4.47;2.45;;;25.40;52.30;;;;;;5007666;28;20147;-74
2022/06/16 08:08:06;;;;;;;4.90;2.25;;;25.50;51.10;;;;;;5025010;28;20093;-73
2022/06/16 08:10:34;;;;;;;6.10;3.05;;;25.70;50.70;;;;;;5002336;28;20539;-73
2022/06/16 08:13:00;;;;;;;2.60;2.40;;;25.80;50.30;;;;;;5015034;28;20117;-74
2022/06/16 08:15:26;;;;;;;4.30;2.17;;;26.00;50.00;;;;;;4989726;28;20092;-74
2022/06/16 08:17:52;;;;;;;3.30;2.45;;;26.10;49.70;;;;;;5019678;28;20034;-74
2022/06/16 08:20:18;;;;;;;3.45;2.05;;;26.20;49.30;;;;;;5011540;28;20540;-73
2022/06/16 08:22:44;;;;;;;2.28;2.00;;;26.30;48.90;;;;;;4982343;28;20113;-73
2022/06/16 08:25:12;;;;;;;2.75;2.15;;;26.40;48.60;;;;;;4986214;28;20044;-73
2022/06/16 08:27:38;;;;;;;5.32;2.15;;;26.50;48.40;;;;;;5023314;28;20033;-74
2022/06/16 08:30:08;;;;;;;4.72;2.00;;;26.70;48.20;;;;;;5008191;28;20037;-73
2022/06/16 08:32:33;;;;;;;4.07;2.50;;;26.90;48.00;;;;;;5008923;28;20128;-74
2022/06/16 08:34:59;;;;;;;4.93;2.50;;;27.10;47.60;;;;;;5000848;28;20062;-74
2022/06/16 08:37:25;;;;;;;8.18;2.45;;;27.30;47.20;;;;;;5003079;28;20035;-74
2022/06/16 08:39:51;;;;;;;4.60;2.10;;;27.50;46.90;;;;;;5001979;28;20057;-74
2022/06/16 08:42:24;;;;;;;2.83;1.90;;;27.70;46.50;;;;;;5021921;28;20061;-75
2022/06/16 08:44:59;;;;;;;2.22;2.00;;;27.90;46.00;;;;;;5017927;28;20042;-75
2022/06/16 08:47:48;;;;;;;13.90;3.05;;;28.10;45.90;;;;;;5023727;28;20128;-75
2022/06/16 08:50:30;;;;;;;2.00;1.80;;;28.40;45.20;;;;;;4989620;28;20037;-75
2022/06/16 08:53:06;;;;;;;7.63;2.20;;;28.60;44.80;;;;;;4994593;28;20034;-70
2022/06/16 08:55:46;;;;;;;2.78;2.00;;;28.80;44.60;;;;;;5000059;28;20041;-74
2022/06/16 08:58:24;;;;;;;3.70;1.83;;;29.00;44.30;;;;;;4991680;28;20045;-75
2022/06/16 09:00:54;;;;;;;5.45;2.05;;;29.20;43.90;;;;;;4999217;28;20122;-75
2022/06/16 09:03:25;;;;;;;6.43;2.03;;;29.40;43.90;;;;;;5025607;28;20032;-75
2022/06/16 09:06:00;;;;;;;3.20;2.10;;;29.60;43.70;;;;;;5012396;28;20041;-76
2022/06/16 09:08:31;;;;;;;3.92;2.03;;;29.80;43.00;;;;;;5015166;28;20029;-76
2022/06/16 09:11:21;;;;;;;7.15;2.00;;;30.00;42.80;;;;;;5038594;28;20048;-75
2022/06/16 09:13:58;;;;;;;3.15;1.63;;;30.20;42.10;;;;;;5006285;28;20098;-75
2022/06/16 09:16:31;;;;;;;2.67;1.83;;;30.40;42.20;;;;;;5015116;28;20498;-75
2022/06/16 09:19:00;;;;;;;4.22;2.08;;;30.60;41.90;;;;;;5026010;28;20045;-75
2022/06/16 09:21:35;;;;;;;5.18;1.70;;;30.80;41.60;;;;;;5029437;28;20395;-75
2022/06/16 09:24:34;;;;;;;2.75;1.50;;;31.00;41.10;;;;;;5019696;28;20037;-75
2022/06/16 09:27:11;;;;;;;2.88;1.77;;;31.20;40.30;;;;;;5044911;28;20033;-74
2022/06/16 09:29:42;;;;;;;2.83;1.38;;;31.50;40.60;;;;;;5027538;28;20045;-75
2022/06/16 09:32:42;;;;;;;3.22;2.03;;;31.60;40.30;;;;;;5013173;28;20045;-76
2022/06/16 09:35:14;;;;;;;4.57;1.70;;;31.80;39.10;;;;;;4984202;28;20037;-75
2022/06/16 09:38:21;;;;;;;3.70;1.58;;;32.00;39.30;;;;;;5006519;28;20037;-76
2022/06/16 09:42:32;;;;;;;3.08;1.50;;;32.20;38.60;;;;;;4952238;28;20031;-75
2022/06/16 09:43:55;;;;;;;2.67;1.95;;;32.40;37.90;;;;;;5008318;28;20036;-76
2022/06/16 09:46:23;;;;;;;2.38;1.70;;;32.50;38.30;;;;;;5011767;28;20053;-76
2022/06/16 09:49:06;;;;;;;2.85;1.45;;;32.60;37.90;;;;;;5016949;28;20031;-75
2022/06/16 09:51:34;;;;;;;4.22;1.70;;;32.80;37.10;;;;;;5001392;28;20044;-75
2022/06/16 09:54:27;;;;;;;4.35;1.70;;;32.90;37.40;;;;;;5028744;28;20039;-75
2022/06/16 09:56:54;;;;;;;2.13;1.35;;;33.00;36.40;;;;;;5006844;28;20037;-76
2022/06/16 09:59:32;;;;;;;3.50;1.70;;;33.20;37.10;;;;;;4998123;28;20065;-76
2022/06/16 10:02:00;;;;;;;2.45;1.73;;;33.30;36.70;;;;;;5013084;28;20038;-75
2022/06/16 10:04:25;;;;;;;3.40;1.73;;;33.50;36.50;;;;;;4993772;28;20048;-75
2022/06/16 10:07:07;;;;;;;2.75;1.70;;;33.70;36.10;;;;;;5005306;28;20038;-76
2022/06/16 10:09:52;;;;;;;2.60;1.77;;;33.80;35.50;;;;;;5010189;28;20037;-75
2022/06/16 10:12:32;;;;;;;4.43;1.83;;;33.90;35.30;;;;;;5019726;28;20037;-76
2022/06/16 10:15:19;;;;;;;3.90;1.53;;;34.00;34.60;;;;;;5044468;28;20038;-76
2022/06/16 10:17:46;;;;;;;1.77;1.63;;;34.10;34.80;;;;;;5028504;28;20267;-75
2022/06/16 10:20:13;;;;;;;5.25;1.65;;;34.30;34.80;;;;;;5013744;28;20651;-76
2022/06/16 10:22:39;;;;;;;7.15;1.92;;;34.40;34.40;;;;;;5035514;28;20302;-76
2022/06/16 10:25:17;;;;;;;3.85;1.70;;;34.60;34.10;;;;;;4995241;28;20044;-76
2022/06/16 10:27:46;;;;;;;5.72;1.77;;;34.70;33.30;;;;;;4997773;28;20120;-76
2022/06/16 10:30:51;;;;;;;3.85;1.77;;;34.70;33.60;;;;;;5039188;28;20442;-76
2022/06/16 10:33:22;;;;;;;2.00;1.60;;;34.80;32.90;;;;;;4967294;28;20625;-76
2022/06/16 10:36:07;;;;;;;2.97;1.70;;;34.90;33.00;;;;;;5023756;28;20041;-75
2022/06/16 10:38:40;;;;;;;2.30;1.38;;;35.00;32.40;;;;;;5026600;28;20030;-75
2022/06/16 10:41:30;;;;;;;4.40;1.52;;;35.00;32.70;;;;;;4997052;28;20056;-75
2022/06/16 10:43:57;;;;;;;6.72;1.40;;;35.10;32.50;;;;;;5010936;28;20053;-75
2022/06/16 10:46:36;;;;;;;4.43;1.80;;;35.20;32.50;;;;;;4999272;28;20493;-76
2022/06/16 10:49:04;;;;;;;3.78;1.80;;;35.30;31.80;;;;;;5019298;28;20041;-75
2022/06/16 10:51:30;;;;;;;5.40;1.60;;;35.30;32.00;;;;;;5024004;28;20168;-75
2022/06/16 10:54:03;;;;;;;3.47;1.70;;;35.40;31.90;;;;;;5001508;28;20085;-74
2022/06/16 10:56:29;;;;;;;4.88;1.80;;;35.50;31.50;;;;;;5005113;28;20041;-74
2022/06/16 10:59:00;;;;;;;3.00;1.50;;;35.60;31.50;;;;;;5007253;28;20064;-76
2022/06/16 11:01:40;;;;;;;2.67;1.70;;;35.70;31.10;;;;;;5025683;28;20038;-75
2022/06/16 11:04:11;;;;;;;4.73;1.60;;;35.90;30.50;;;;;;5037930;28;20046;-75
2022/06/16 11:06:44;;;;;;;5.47;1.63;;;36.10;31.00;;;;;;5005794;28;20066;-74
2022/06/16 11:09:10;;;;;;;2.00;1.55;;;36.30;30.90;;;;;;5010187;28;20128;-75
2022/06/16 11:11:45;;;;;;;4.22;1.60;;;36.50;30.70;;;;;;5013244;28;20113;-74
2022/06/16 11:14:13;;;;;;;3.78;1.63;;;36.70;30.50;;;;;;4982969;28;20038;-76
2022/06/16 11:16:44;;;;;;;7.30;1.55;;;36.70;30.20;;;;;;5007491;28;20030;-75
2022/06/16 11:19:10;;;;;;;8.40;1.52;;;36.80;30.20;;;;;;5009486;28;20490;-75
2022/06/16 11:21:35;;;;;;;6.57;1.80;;;36.90;30.00;;;;;;5009887;28;20049;-75
2022/06/16 11:24:07;;;;;;;2.25;1.48;;;37.00;29.90;;;;;;5005887;28;20087;-74
2022/06/16 11:26:34;;;;;;;3.30;1.65;;;37.10;29.80;;;;;;4993912;28;20310;-75
2022/06/16 11:29:22;;;;;;;4.53;1.65;;;37.20;29.70;;;;;;5023601;28;20098;-75
2022/06/16 11:31:51;;;;;;;2.95;1.40;;;37.20;29.10;;;;;;4996310;28;20036;-75
2022/06/16 11:34:25;;;;;;;5.55;1.23;;;37.30;29.50;;;;;;5013938;28;20037;-74
2022/06/16 11:37:00;;;;;;;2.45;1.40;;;37.40;29.20;;;;;;5022514;28;20049;-75
2022/06/16 11:39:33;;;;;;;3.70;1.75;;;37.50;29.20;;;;;;5010096;28;20549;-75
2022/06/16 11:41:59;;;;;;;5.00;1.40;;;37.50;28.90;;;;;;5040055;28;20453;-75
2022/06/16 11:45:00;;;;;;;4.15;1.95;;;37.50;29.00;;;;;;5020094;28;20038;-75
2022/06/16 11:47:58;;;;;;;2.63;1.35;;;37.70;28.80;;;;;;4982284;28;20046;-75
2022/06/16 11:50:33;;;;;;;2.67;1.33;;;37.70;28.60;;;;;;5012051;28;20036;-75
2022/06/16 11:53:18;;;;;;;2.97;1.50;;;37.80;28.80;;;;;;5005880;28;20706;-76
2022/06/16 11:55:50;;;;;;;2.58;1.60;;;38.00;28.90;;;;;;5014003;28;20089;-76
2022/06/16 11:58:27;;;;;;;4.80;1.40;;;37.90;28.60;;;;;;5017568;28;20049;-75
2022/06/16 12:01:07;;;;;;;3.60;1.25;;;38.00;28.30;;;;;;5006689;28;20049;-74
2022/06/16 12:03:43;;;;;;;3.40;1.30;;;38.00;28.10;;;;;;5027170;28;20038;-75
2022/06/16 12:06:15;;;;;;;2.40;1.33;;;37.90;28.30;;;;;;5009808;28;20274;-75
2022/06/16 12:08:40;;;;;;;3.03;1.30;;;38.00;28.30;;;;;;5021836;28;20041;-76
2022/06/16 12:11:47;;;;;;;3.28;1.45;;;38.10;28.20;;;;;;5025726;28;20037;-75
2022/06/16 12:14:23;;;;;;;5.05;1.90;;;38.20;27.90;;;;;;4992559;28;20071;-75
2022/06/16 12:17:07;;;;;;;5.20;1.35;;;38.30;27.60;;;;;;5022573;28;20110;-75
2022/06/16 12:19:45;;;;;;;2.10;1.10;;;38.40;27.40;;;;;;5019429;28;20048;-76
2022/06/16 12:22:31;;;;;;;3.00;1.40;;;38.40;27.30;;;;;;5029726;28;20170;-75
2022/06/16 12:25:41;;;;;;;4.53;1.30;;;38.40;27.30;;;;;;5007160;28;20053;-75
2022/06/16 12:28:16;;;;;;;2.05;1.10;;;38.40;26.90;;;;;;5023603;28;20037;-74
2022/06/16 12:30:50;;;;;;;2.00;1.30;;;38.40;27.30;;;;;;4996213;28;20053;-76
2022/06/16 12:33:42;;;;;;;4.45;1.40;;;38.50;27.20;;;;;;5016142;28;20051;-75
2022/06/16 12:36:36;;;;;;;2.13;1.20;;;38.50;27.20;;;;;;5017754;28;20029;-75
2022/06/16 12:39:11;;;;;;;2.50;1.50;;;38.70;27.10;;;;;;5012047;28;20033;-75
2022/06/16 12:41:39;;;;;;;4.85;1.70;;;38.70;26.70;;;;;;5016311;28;20050;-75
2022/06/16 12:44:15;;;;;;;2.83;1.40;;;38.70;27.00;;;;;;5022162;28;20037;-74
2022/06/16 12:46:47;;;;;;;1.60;1.35;;;38.70;26.60;;;;;;5001070;28;20030;-75
2022/06/16 12:49:18;;;;;;;2.65;1.48;;;38.70;26.70;;;;;;4991941;28;20037;-76
2022/06/16 12:51:47;;;;;;;4.65;1.30;;;38.70;26.70;;;;;;5001230;28;20112;-76
2022/06/16 12:54:16;;;;;;;2.90;1.45;;;38.80;26.70;;;;;;5021585;28;20044;-76
2022/06/16 12:56:49;;;;;;;2.70;1.15;;;38.80;26.50;;;;;;5010555;28;20053;-75
2022/06/16 12:59:42;;;;;;;2.33;1.23;;;38.80;26.40;;;;;;5023854;28;20100;-76
2022/06/16 13:02:09;;;;;;;4.03;1.20;;;38.90;26.20;;;;;;5002456;28;20675;-75
2022/06/16 13:04:34;;;;;;;3.65;1.30;;;39.00;26.50;;;;;;4997202;28;20073;-76
2022/06/16 13:07:03;;;;;;;5.13;1.55;;;39.00;26.30;;;;;;5006140;28;20142;-76
2022/06/16 13:09:29;;;;;;;2.90;1.25;;;38.90;26.10;;;;;;5019088;28;20038;-75
2022/06/16 13:12:05;;;;;;;2.30;1.17;;;38.90;26.00;;;;;;5002921;28;20192;-75
2022/06/16 13:14:33;;;;;;;5.03;1.02;;;38.90;25.60;;;;;;5007025;28;20041;-75
2022/06/16 13:17:00;;;;;;;2.92;0.90;;;39.00;25.70;;;;;;4998626;28;20029;-75
2022/06/16 13:19:31;;;;;;;1.15;1.00;;;39.00;25.50;;;;;;5009005;28;20136;-76
2022/06/16 13:22:04;;;;;;;1.42;0.88;;;39.00;25.20;;;;;;5038576;28;20143;-75
2022/06/16 13:24:52;;;;;;;4.57;0.85;;;39.00;24.70;;;;;;4995130;28;20030;-75
2022/06/16 13:27:30;;;;;;;3.78;1.10;;;39.00;24.30;;;;;;5028327;28;20060;-75
2022/06/16 13:30:05;;;;;;;3.33;0.90;;;39.00;24.10;;;;;;4992987;28;20113;-76